Aviation Digital Data Service (ADDS)

Output produced by METARs form (0900 UTC 24 January 2017)
found at http://www.aviationweather.gov/adds/metars/
 
KEWR 240833Z 2409/2512 02020G26KT 6SM -RA BR OVC014 
     FM241600 36015G24KT 5SM -RA BR OVC012 
     FM242000 33016G21KT 5SM -RA BR OVC012 
     FM250200 33014KT P6SM BKN030 
     FM250400 32012KT P6SM SCT030 BKN050 
     FM251100 29012KT P6SM FEW250